Time;durP1;ratioP1;P1;durP2;ratioP2;P2;SDS_P1;SDS_P2;PMS_P1;PMS_P2;Temp;Humidity;BMP_temperature;BMP_pressure;BME280_temperature;BME280_humidity;BME280_pressure;Samples;Min_cycle;Max_cycle;Signal;HPM_P1;HPM_P2
2022/05/29 00:01:33;;;;;;;3.03;1.10;;;10.00;99.90;;;;;;5015923;28;20476;-84
2022/05/29 00:04:00;;;;;;;5.27;1.67;;;10.00;99.90;;;;;;5018727;28;20452;-83
2022/05/29 00:06:27;;;;;;;5.13;1.60;;;9.90;99.90;;;;;;5020321;28;20965;-84
2022/05/29 00:08:55;;;;;;;4.03;1.57;;;9.90;99.90;;;;;;5020046;28;20451;-83
2022/05/29 00:11:21;;;;;;;3.20;1.27;;;9.90;99.90;;;;;;5019678;28;20497;-85
2022/05/29 00:13:48;;;;;;;4.87;1.43;;;9.90;99.90;;;;;;5020034;28;20460;-82
2022/05/29 00:16:15;;;;;;;5.77;2.17;;;9.80;99.90;;;;;;5020028;28;20461;-84
2022/05/29 00:18:43;;;;;;;5.17;1.27;;;9.80;99.90;;;;;;5019692;28;20459;-84
2022/05/29 00:21:10;;;;;;;5.00;1.30;;;9.70;99.90;;;;;;5018174;28;20479;-84
2022/05/29 00:23:42;;;;;;;3.17;1.57;;;9.70;99.90;;;;;;5020571;28;20457;-86
2022/05/29 00:26:11;;;;;;;3.93;1.70;;;9.70;99.90;;;;;;5019685;28;20468;-83
2022/05/29 00:28:38;;;;;;;3.67;1.63;;;9.70;99.90;;;;;;5018817;28;20452;-84
2022/05/29 00:31:05;;;;;;;6.17;1.50;;;9.70;99.90;;;;;;5017472;28;20493;-84
2022/05/29 00:33:32;;;;;;;3.47;1.57;;;9.80;99.90;;;;;;5018835;28;20453;-85
2022/05/29 00:35:58;;;;;;;5.93;1.90;;;9.70;99.90;;;;;;5018734;28;20453;-84
2022/05/29 00:38:26;;;;;;;4.90;1.97;;;9.70;99.90;;;;;;5019245;28;20452;-83
2022/05/29 00:40:58;;;;;;;3.30;1.60;;;9.70;99.90;;;;;;5017496;28;20507;-83
2022/05/29 00:43:26;;;;;;;8.67;2.50;;;9.60;99.90;;;;;;5018800;28;20809;-84
2022/05/29 00:45:56;;;;;;;4.10;2.00;;;9.70;99.90;;;;;;5018299;28;20468;-84
2022/05/29 00:48:25;;;;;;;5.57;1.93;;;9.70;99.90;;;;;;5018823;28;20916;-83
2022/05/29 00:50:54;;;;;;;4.90;1.97;;;9.60;99.90;;;;;;5017876;28;20955;-83
2022/05/29 00:53:22;;;;;;;4.27;2.17;;;9.60;99.90;;;;;;5017697;28;20457;-84
2022/05/29 00:55:54;;;;;;;4.23;1.43;;;9.50;99.90;;;;;;5018176;28;20455;-83
2022/05/29 00:58:23;;;;;;;3.97;1.77;;;9.50;99.90;;;;;;5017803;28;20937;-85
2022/05/29 01:00:54;;;;;;;3.00;1.57;;;9.40;99.90;;;;;;5017623;28;20478;-84
2022/05/29 01:03:21;;;;;;;3.50;1.53;;;9.40;99.90;;;;;;5017932;28;21003;-83
2022/05/29 01:05:47;;;;;;;9.10;2.13;;;9.40;99.90;;;;;;5017955;28;20470;-84
2022/05/29 01:08:19;;;;;;;5.70;1.80;;;9.40;99.90;;;;;;5018057;28;20447;-82
2022/05/29 01:11:16;;;;;;;5.20;1.80;;;9.30;99.90;;;;;;5017275;28;20497;-83
2022/05/29 01:13:53;;;;;;;5.50;2.00;;;9.20;99.90;;;;;;5015218;28;20547;-83
2022/05/29 01:16:31;;;;;;;5.00;2.03;;;9.20;99.90;;;;;;5016998;28;20455;-83
2022/05/29 01:19:18;;;;;;;4.43;1.80;;;9.10;99.90;;;;;;5017426;28;20440;-82
2022/05/29 01:21:57;;;;;;;6.23;2.03;;;9.10;99.90;;;;;;5016465;28;21005;-83
2022/05/29 01:24:56;;;;;;;4.20;2.10;;;9.10;99.90;;;;;;5017460;28;20449;-83
2022/05/29 01:27:41;;;;;;;4.10;1.73;;;9.00;99.90;;;;;;5017650;28;20534;-84
2022/05/29 01:30:14;;;;;;;5.00;1.70;;;9.00;99.90;;;;;;5025712;28;20455;-84
2022/05/29 01:32:51;;;;;;;5.70;2.40;;;9.00;99.90;;;;;;5019423;28;20527;-84
2022/05/29 01:35:24;;;;;;;4.53;2.10;;;8.90;99.90;;;;;;5020464;28;20522;-86
2022/05/29 01:37:54;;;;;;;6.57;2.23;;;8.90;99.90;;;;;;5020287;28;20960;-85
2022/05/29 01:40:31;;;;;;;6.90;2.40;;;8.90;99.90;;;;;;5020177;28;20451;-86
2022/05/29 01:43:05;;;;;;;6.60;3.03;;;8.90;99.90;;;;;;5019988;28;20551;-85
2022/05/29 01:45:53;;;;;;;7.10;2.50;;;8.80;99.90;;;;;;5019456;28;20446;-84
2022/05/29 01:48:28;;;;;;;5.07;2.20;;;8.80;99.90;;;;;;5019207;28;20458;-85
2022/05/29 01:50:58;;;;;;;6.70;2.73;;;8.70;99.90;;;;;;5018068;28;20950;-84
2022/05/29 01:53:32;;;;;;;4.50;2.10;;;8.70;99.90;;;;;;5019254;28;20434;-84
2022/05/29 01:56:02;;;;;;;4.80;2.20;;;8.80;99.90;;;;;;5018626;28;20439;-84
2022/05/29 01:58:35;;;;;;;3.80;2.33;;;8.80;99.90;;;;;;5018208;28;20809;-85
2022/05/29 02:01:05;;;;;;;4.23;1.90;;;8.70;99.90;;;;;;5017841;28;20473;-86
2022/05/29 02:03:36;;;;;;;5.87;2.93;;;8.70;99.90;;;;;;5018151;28;20947;-84
2022/05/29 02:06:09;;;;;;;6.20;2.10;;;8.70;99.90;;;;;;5018122;28;20451;-84
2022/05/29 02:08:41;;;;;;;3.97;2.63;;;8.70;99.90;;;;;;5018327;28;20437;-84
2022/05/29 02:11:12;;;;;;;5.80;2.43;;;8.70;99.90;;;;;;5017382;28;20503;-86
2022/05/29 02:13:46;;;;;;;6.00;2.20;;;8.70;99.90;;;;;;5018038;28;20433;-84
2022/05/29 02:16:17;;;;;;;6.80;2.80;;;8.70;99.90;;;;;;5017616;28;20525;-85
2022/05/29 02:18:50;;;;;;;8.47;2.77;;;8.70;99.90;;;;;;5018421;28;20944;-84
2022/05/29 02:21:25;;;;;;;5.60;2.60;;;8.70;99.90;;;;;;5023616;28;20604;-83
2022/05/29 02:23:55;;;;;;;3.43;2.07;;;8.60;99.90;;;;;;5019827;28;20456;-86
2022/05/29 02:26:26;;;;;;;6.80;2.27;;;8.60;99.90;;;;;;5017842;28;20449;-84
2022/05/29 02:28:59;;;;;;;3.87;2.10;;;8.60;99.90;;;;;;5020628;28;20529;-85
2022/05/29 02:31:39;;;;;;;8.67;2.77;;;8.60;99.90;;;;;;5017860;28;20504;-86
2022/05/29 02:34:17;;;;;;;5.20;2.13;;;8.60;99.90;;;;;;5015455;28;20966;-85
2022/05/29 02:36:50;;;;;;;9.47;2.50;;;8.50;99.90;;;;;;5014598;28;20458;-83
2022/05/29 02:39:28;;;;;;;4.83;2.70;;;8.50;99.90;;;;;;5013794;28;20448;-83
2022/05/29 02:42:09;;;;;;;11.80;2.73;;;8.50;99.90;;;;;;5013668;28;20986;-85
2022/05/29 02:44:43;;;;;;;7.07;2.60;;;8.50;99.90;;;;;;5014986;28;20446;-84
2022/05/29 02:47:25;;;;;;;5.77;2.30;;;8.40;99.90;;;;;;5015091;28;20433;-84
2022/05/29 02:50:11;;;;;;;4.80;2.30;;;8.40;99.90;;;;;;5015166;28;20443;-84
2022/05/29 02:52:38;;;;;;;7.60;2.30;;;8.40;99.90;;;;;;5002697;28;20490;-83
2022/05/29 02:55:06;;;;;;;4.50;1.93;;;8.40;99.90;;;;;;4995964;28;20468;-82
2022/05/29 02:57:33;;;;;;;6.77;2.63;;;8.40;99.90;;;;;;4996023;28;20521;-84
2022/05/29 03:00:11;;;;;;;8.83;2.37;;;8.50;99.90;;;;;;4995878;28;20453;-83
2022/05/29 03:02:46;;;;;;;8.60;2.93;;;8.40;99.90;;;;;;5009326;28;20485;-83
2022/05/29 03:05:21;;;;;;;6.00;2.37;;;8.50;99.90;;;;;;5015975;28;20451;-83
2022/05/29 03:08:02;;;;;;;4.17;2.07;;;8.60;99.90;;;;;;5015938;28;20450;-84
2022/05/29 03:10:35;;;;;;;4.93;1.93;;;8.60;99.90;;;;;;5014553;28;20466;-83
2022/05/29 03:13:08;;;;;;;3.60;2.00;;;8.70;99.90;;;;;;5015739;28;20465;-84
2022/05/29 03:15:49;;;;;;;6.47;2.27;;;8.70;99.90;;;;;;5018886;28;20560;-89
2022/05/29 03:18:39;;;;;;;6.67;2.60;;;8.70;99.90;;;;;;5023403;28;20438;-84
2022/05/29 03:21:12;;;;;;;7.30;2.57;;;8.80;99.90;;;;;;5018040;28;20890;-84
2022/05/29 03:23:47;;;;;;;5.00;2.40;;;8.80;99.90;;;;;;5018606;28;20459;-84
2022/05/29 03:26:20;;;;;;;4.87;2.50;;;8.80;99.90;;;;;;5018601;28;20434;-84
2022/05/29 03:28:51;;;;;;;4.83;2.97;;;8.90;99.90;;;;;;5018834;28;20440;-85
2022/05/29 03:31:21;;;;;;;6.73;2.27;;;8.90;99.90;;;;;;5017458;28;20563;-84
2022/05/29 03:33:50;;;;;;;8.50;3.67;;;9.00;99.90;;;;;;5017260;28;20447;-85
2022/05/29 03:36:18;;;;;;;3.63;2.27;;;9.10;99.90;;;;;;5017546;28;20516;-84
2022/05/29 03:38:47;;;;;;;8.00;2.80;;;9.20;99.90;;;;;;5017307;28;20463;-84
2022/05/29 03:41:16;;;;;;;11.57;3.30;;;9.20;99.90;;;;;;5016600;28;20478;-84
2022/05/29 03:43:43;;;;;;;6.60;3.83;;;9.20;99.90;;;;;;5017276;28;20529;-85
2022/05/29 03:46:09;;;;;;;5.40;3.20;;;9.30;99.90;;;;;;5017384;28;20446;-84
2022/05/29 03:48:36;;;;;;;6.07;3.47;;;9.40;99.90;;;;;;5016988;28;20800;-85
2022/05/29 03:51:09;;;;;;;5.73;3.13;;;9.50;99.90;;;;;;5015909;28;20486;-84
2022/05/29 03:53:36;;;;;;;6.43;3.20;;;9.70;99.90;;;;;;5016186;28;20995;-84
2022/05/29 03:56:04;;;;;;;7.20;3.13;;;9.80;99.90;;;;;;5016250;28;20459;-85
2022/05/29 03:58:31;;;;;;;6.43;3.20;;;9.80;99.90;;;;;;5016474;28;20463;-86
2022/05/29 04:00:58;;;;;;;6.07;3.43;;;9.90;99.90;;;;;;5014676;28;20473;-85
2022/05/29 04:03:25;;;;;;;6.63;3.83;;;10.00;99.90;;;;;;5015753;28;20449;-86
2022/05/29 04:05:52;;;;;;;5.27;2.70;;;10.00;99.90;;;;;;5015889;28;20454;-83
2022/05/29 04:13:50;;;;;;;6.53;3.33;;;10.30;99.90;;;;;;5014909;28;20971;-85
2022/05/29 04:16:17;;;;;;;8.13;3.77;;;10.30;99.90;;;;;;5015878;28;20539;-84
2022/05/29 04:18:44;;;;;;;7.13;3.40;;;10.40;99.90;;;;;;5015533;28;20440;-84
2022/05/29 04:21:10;;;;;;;5.90;3.10;;;10.40;99.90;;;;;;5015364;28;20551;-84
2022/05/29 04:23:39;;;;;;;6.80;2.97;;;10.50;99.90;;;;;;5016217;28;20619;-85
2022/05/29 04:26:06;;;;;;;4.83;3.13;;;10.50;99.90;;;;;;5015680;28;20463;-86
2022/05/29 04:28:33;;;;;;;4.50;2.73;;;10.40;99.90;;;;;;5015187;28;20507;-84
2022/05/29 04:31:00;;;;;;;11.43;3.23;;;10.50;99.90;;;;;;5039872;22;20491;-78
2022/05/29 04:33:26;;;;;;;6.50;3.23;;;10.50;99.90;;;;;;5010261;28;20528;-80
2022/05/29 04:35:54;;;;;;;4.27;2.43;;;10.60;99.90;;;;;;4999115;28;20456;-79
2022/05/29 04:38:23;;;;;;;10.30;4.00;;;10.60;99.90;;;;;;4996098;28;20465;-80
2022/05/29 04:40:52;;;;;;;7.33;3.30;;;10.60;99.90;;;;;;5014019;28;20984;-79
2022/05/29 04:43:19;;;;;;;7.70;3.70;;;10.60;99.90;;;;;;5014670;28;20474;-80
2022/05/29 04:45:47;;;;;;;6.50;2.70;;;10.70;99.90;;;;;;5014426;28;20437;-79
2022/05/29 04:48:16;;;;;;;6.43;3.40;;;10.70;99.90;;;;;;5014599;28;20451;-79
2022/05/29 04:50:43;;;;;;;7.07;3.10;;;10.70;99.90;;;;;;5016237;28;20899;-80
2022/05/29 04:53:10;;;;;;;5.87;2.67;;;10.70;99.90;;;;;;5018123;28;20511;-81
2022/05/29 04:55:39;;;;;;;8.70;3.67;;;10.80;99.90;;;;;;5024197;28;20452;-80
2022/05/29 04:58:07;;;;;;;5.33;2.80;;;10.90;99.90;;;;;;5018006;28;20487;-80
2022/05/29 05:00:34;;;;;;;7.27;3.30;;;10.70;99.90;;;;;;5016590;28;20464;-80
2022/05/29 05:03:02;;;;;;;6.77;2.53;;;10.90;99.90;;;;;;5017556;28;20995;-81
2022/05/29 05:05:29;;;;;;;3.17;2.37;;;11.00;99.90;;;;;;5017675;28;20457;-81
2022/05/29 05:07:56;;;;;;;7.50;3.00;;;11.00;99.90;;;;;;5017604;28;20457;-80
2022/05/29 05:10:23;;;;;;;9.23;3.53;;;11.00;99.90;;;;;;5016699;28;20854;-79
2022/05/29 05:12:52;;;;;;;6.73;2.93;;;10.90;99.90;;;;;;5017169;28;20514;-81
2022/05/29 05:15:20;;;;;;;5.90;3.33;;;10.90;99.90;;;;;;5017715;28;20488;-81
2022/05/29 05:17:47;;;;;;;8.70;3.53;;;10.90;99.90;;;;;;5018780;28;20456;-80
2022/05/29 05:20:14;;;;;;;4.43;3.00;;;10.80;99.90;;;;;;5016957;28;20450;-80
2022/05/29 05:22:42;;;;;;;8.10;3.50;;;10.90;99.90;;;;;;5016809;28;20470;-81
2022/05/29 05:25:10;;;;;;;7.93;3.20;;;10.90;99.90;;;;;;5018004;28;20464;-80
2022/05/29 05:27:37;;;;;;;6.30;2.83;;;11.00;99.90;;;;;;5016906;28;20447;-81
2022/05/29 05:30:05;;;;;;;6.33;4.10;;;11.10;99.90;;;;;;5017480;28;20462;-80
2022/05/29 05:32:34;;;;;;;7.67;3.53;;;11.10;99.90;;;;;;5016183;28;20496;-81
2022/05/29 05:35:06;;;;;;;5.53;3.00;;;11.10;99.90;;;;;;5016855;28;20445;-80
2022/05/29 05:37:34;;;;;;;6.77;3.63;;;11.00;99.90;;;;;;5017515;28;20453;-79
2022/05/29 05:40:01;;;;;;;5.57;3.73;;;11.10;99.90;;;;;;5016884;28;20550;-79
2022/05/29 05:42:28;;;;;;;5.60;3.40;;;11.00;99.90;;;;;;5016454;28;20563;-79
2022/05/29 05:44:55;;;;;;;11.33;5.63;;;11.20;99.90;;;;;;5016800;28;20483;-80
2022/05/29 05:47:23;;;;;;;8.20;4.50;;;11.20;99.90;;;;;;5016997;28;20483;-80
2022/05/29 05:49:51;;;;;;;8.87;5.43;;;11.20;99.90;;;;;;5017703;28;21035;-79
2022/05/29 05:52:19;;;;;;;10.33;5.40;;;11.40;99.90;;;;;;5018536;28;20512;-79
2022/05/29 05:54:46;;;;;;;8.03;4.77;;;11.50;99.90;;;;;;5018663;28;20453;-79
2022/05/29 05:57:13;;;;;;;9.43;5.30;;;11.50;99.90;;;;;;5019034;28;20465;-80
2022/05/29 05:59:41;;;;;;;8.33;4.30;;;11.40;99.90;;;;;;5018381;28;20461;-80
2022/05/29 06:02:10;;;;;;;10.60;5.00;;;11.60;99.90;;;;;;5017899;28;20476;-80
2022/05/29 06:04:37;;;;;;;6.63;3.93;;;11.70;99.90;;;;;;5017810;28;20894;-80
2022/05/29 06:07:05;;;;;;;8.50;4.07;;;11.80;99.90;;;;;;5018644;28;20532;-80
2022/05/29 06:09:32;;;;;;;11.97;3.93;;;11.80;99.90;;;;;;5018732;28;20955;-80
2022/05/29 06:11:59;;;;;;;9.87;4.13;;;11.80;99.90;;;;;;5018381;28;20473;-80
2022/05/29 06:14:26;;;;;;;5.70;3.30;;;11.90;99.90;;;;;;5019060;28;20451;-80
2022/05/29 06:16:53;;;;;;;5.43;3.83;;;12.00;99.90;;;;;;5017876;28;20464;-80
2022/05/29 06:19:19;;;;;;;6.53;4.53;;;12.20;99.90;;;;;;5016718;28;20485;-81
2022/05/29 06:21:46;;;;;;;3.77;2.80;;;12.40;99.90;;;;;;5017002;28;20470;-79
2022/05/29 06:24:14;;;;;;;7.90;3.57;;;12.40;99.90;;;;;;5018426;28;20451;-80
2022/05/29 06:26:41;;;;;;;9.67;4.50;;;12.60;99.90;;;;;;5018475;28;20453;-80
2022/05/29 06:29:09;;;;;;;9.53;5.03;;;12.70;99.90;;;;;;5018282;28;20466;-79
2022/05/29 06:31:36;;;;;;;11.60;4.00;;;12.50;99.90;;;;;;5017395;28;20485;-78
2022/05/29 06:34:03;;;;;;;9.93;5.00;;;12.50;99.90;;;;;;5018027;28;20485;-79
2022/05/29 06:36:30;;;;;;;6.90;4.23;;;12.50;99.90;;;;;;5017851;28;20466;-79
2022/05/29 06:38:58;;;;;;;9.57;4.80;;;12.70;99.90;;;;;;5017222;28;20980;-80
2022/05/29 06:41:29;;;;;;;8.77;4.87;;;12.70;99.90;;;;;;5016170;28;21002;-80
2022/05/29 06:43:55;;;;;;;7.73;4.80;;;12.80;99.90;;;;;;5017486;28;20866;-80
2022/05/29 06:46:22;;;;;;;9.50;5.03;;;12.80;99.90;;;;;;5016717;28;20458;-80
2022/05/29 06:48:49;;;;;;;9.23;4.77;;;13.10;99.90;;;;;;5016757;28;20457;-80
2022/05/29 06:51:21;;;;;;;11.90;6.20;;;13.20;99.90;;;;;;5016293;28;20995;-80
2022/05/29 06:53:49;;;;;;;8.43;5.37;;;13.30;99.90;;;;;;5017337;28;20868;-79
2022/05/29 06:56:17;;;;;;;10.67;6.87;;;13.40;99.90;;;;;;5016163;28;20461;-80
2022/05/29 06:58:45;;;;;;;12.20;6.63;;;13.40;99.90;;;;;;5018051;28;20863;-80
2022/05/29 07:07:01;;;;;;;14.20;8.70;;;13.50;99.90;;;;;;5017349;28;20425;-81
2022/05/29 07:09:29;;;;;;;11.80;7.83;;;13.40;99.90;;;;;;5017446;28;20459;-79
2022/05/29 07:12:01;;;;;;;8.00;6.80;;;13.40;99.90;;;;;;5016309;28;20538;-80
2022/05/29 07:14:29;;;;;;;14.27;8.60;;;13.20;99.90;;;;;;5017045;28;20534;-80
2022/05/29 07:16:56;;;;;;;9.97;7.33;;;13.30;99.90;;;;;;5017674;28;21003;-80
2022/05/29 07:19:25;;;;;;;11.00;9.70;;;13.30;99.90;;;;;;5016934;28;20898;-80
2022/05/29 07:21:57;;;;;;;11.87;8.47;;;13.20;99.90;;;;;;5017241;28;20483;-80
2022/05/29 07:24:24;;;;;;;12.90;8.30;;;12.90;99.90;;;;;;5019388;28;20552;-79
2022/05/29 07:26:51;;;;;;;15.80;9.67;;;12.90;99.90;;;;;;5022395;28;20455;-80
2022/05/29 07:29:18;;;;;;;14.57;10.20;;;12.70;99.90;;;;;;5029435;28;20601;-80
2022/05/29 07:31:47;;;;;;;17.20;11.07;;;12.40;99.90;;;;;;5030179;28;20564;-81
2022/05/29 07:34:13;;;;;;;18.50;11.73;;;12.30;99.90;;;;;;5019186;28;20525;-81
2022/05/29 07:36:40;;;;;;;12.70;9.90;;;12.30;99.90;;;;;;5019140;28;20449;-80
2022/05/29 07:39:08;;;;;;;19.07;10.80;;;12.30;99.90;;;;;;5019707;28;20537;-81
2022/05/29 07:44:19;;;;;;;14.07;8.77;;;12.40;99.90;;;;;;5018122;28;20453;-80
2022/05/29 07:46:47;;;;;;;16.13;10.40;;;12.40;99.90;;;;;;5016812;28;20457;-80
2022/05/29 07:49:14;;;;;;;14.73;9.67;;;12.60;99.90;;;;;;5017888;28;20532;-81
2022/05/29 07:51:41;;;;;;;12.60;6.77;;;12.80;99.90;;;;;;5016491;28;20515;-79
2022/05/29 07:54:08;;;;;;;9.73;6.30;;;13.20;99.90;;;;;;5016459;28;20498;-79
2022/05/29 07:56:35;;;;;;;9.83;5.97;;;13.50;99.90;;;;;;5017587;28;20466;-80
2022/05/29 07:59:01;;;;;;;8.50;5.40;;;13.40;99.90;;;;;;5017029;28;20520;-80
2022/05/29 08:01:28;;;;;;;9.20;4.90;;;13.80;99.90;;;;;;5015949;28;20854;-79
2022/05/29 08:03:56;;;;;;;7.03;5.00;;;14.10;99.90;;;;;;5015591;28;20454;-80
2022/05/29 08:06:24;;;;;;;6.33;4.23;;;14.30;99.90;;;;;;5016413;28;20472;-80
2022/05/29 08:08:50;;;;;;;4.20;3.00;;;14.30;99.90;;;;;;5016089;28;20465;-80
2022/05/29 08:11:18;;;;;;;8.70;3.50;;;14.20;99.90;;;;;;5015277;28;20870;-80
2022/05/29 08:13:45;;;;;;;12.10;2.80;;;14.60;99.90;;;;;;5015323;28;20480;-79
2022/05/29 08:16:15;;;;;;;9.30;2.80;;;14.20;99.90;;;;;;5015249;28;20554;-80
2022/05/29 08:18:42;;;;;;;6.00;1.87;;;14.40;99.90;;;;;;5015661;28;20466;-80
2022/05/29 08:21:10;;;;;;;6.20;3.10;;;14.70;99.90;;;;;;5015157;28;20447;-80
2022/05/29 08:23:37;;;;;;;8.13;3.30;;;14.70;99.90;;;;;;5016180;28;20453;-80
2022/05/29 08:31:33;;;;;;;5.53;3.20;;;14.00;99.90;;;;;;5018807;28;20485;-80
2022/05/29 08:33:59;;;;;;;6.47;2.60;;;14.20;99.90;;;;;;5017615;28;20505;-80
2022/05/29 08:36:28;;;;;;;11.90;3.20;;;14.30;99.90;;;;;;5019647;28;20452;-80
2022/05/29 08:38:57;;;;;;;11.73;2.63;;;14.20;99.90;;;;;;5020835;28;20446;-81
2022/05/29 08:41:33;;;;;;;5.07;2.30;;;14.20;99.90;;;;;;5011135;28;20563;-80
2022/05/29 08:44:05;;;;;;;6.30;3.40;;;14.30;99.90;;;;;;5019771;28;20453;-80
2022/05/29 08:46:37;;;;;;;5.33;2.00;;;14.50;99.90;;;;;;5019785;28;20467;-80
2022/05/29 08:49:05;;;;;;;5.63;2.23;;;14.40;99.90;;;;;;4999951;28;20460;-78
2022/05/29 08:51:59;;;;;;;6.07;2.40;;;14.80;99.90;;;;;;5007137;28;20468;-80
2022/05/29 08:54:39;;;;;;;5.60;2.40;;;15.20;99.90;;;;;;5010846;28;20482;-80
2022/05/29 08:57:14;;;;;;;5.23;2.50;;;15.30;99.90;;;;;;5015446;28;20535;-80
2022/05/29 08:59:49;;;;;;;4.27;1.87;;;15.30;99.90;;;;;;5018891;28;20443;-79
2022/05/29 09:02:28;;;;;;;4.13;2.00;;;15.20;99.90;;;;;;4998588;28;20996;-80
2022/05/29 09:05:00;;;;;;;4.93;2.47;;;14.70;99.90;;;;;;4999701;28;20458;-81
2022/05/29 09:07:33;;;;;;;5.23;2.37;;;14.40;99.90;;;;;;4999737;28;20457;-79
2022/05/29 09:10:04;;;;;;;7.63;2.70;;;14.50;99.90;;;;;;5009193;28;20455;-79
2022/05/29 09:12:35;;;;;;;7.13;2.93;;;14.60;99.90;;;;;;5018712;28;20478;-81
2022/05/29 09:15:07;;;;;;;5.13;2.97;;;14.50;99.90;;;;;;5018801;28;20491;-80
2022/05/29 09:17:37;;;;;;;4.20;1.67;;;14.20;99.90;;;;;;5019243;28;20449;-80
2022/05/29 09:20:09;;;;;;;7.23;2.20;;;14.00;99.90;;;;;;5018599;28;20595;-80
2022/05/29 09:22:40;;;;;;;9.33;2.13;;;13.80;99.90;;;;;;5018029;28;20473;-79
2022/05/29 09:25:10;;;;;;;4.70;2.00;;;13.60;99.90;;;;;;5019385;28;20453;-80
2022/05/29 09:27:39;;;;;;;5.07;1.67;;;13.40;99.90;;;;;;5018973;28;20456;-78
2022/05/29 09:30:07;;;;;;;5.03;3.60;;;13.30;99.90;;;;;;5022952;28;20464;-80
2022/05/29 09:32:37;;;;;;;3.43;1.30;;;13.30;99.90;;;;;;5020410;28;20485;-79
2022/05/29 09:35:12;;;;;;;3.90;1.70;;;13.30;99.90;;;;;;5019583;28;20499;-80
2022/05/29 09:37:51;;;;;;;4.33;1.57;;;13.40;99.90;;;;;;5019306;28;20551;-79
2022/05/29 09:40:23;;;;;;;4.07;1.50;;;13.50;99.90;;;;;;5019097;28;20454;-79
2022/05/29 09:42:52;;;;;;;2.80;1.80;;;13.50;99.90;;;;;;5019780;28;20515;-79
2022/05/29 09:45:27;;;;;;;5.80;1.97;;;13.60;99.90;;;;;;5019866;28;20488;-79
2022/05/29 09:50:46;;;;;;;3.70;1.77;;;14.00;99.90;;;;;;5019093;28;20516;-78
2022/05/29 09:53:18;;;;;;;3.27;1.60;;;14.20;99.90;;;;;;5019426;28;20478;-79
2022/05/29 09:56:01;;;;;;;3.90;1.30;;;14.10;99.90;;;;;;5020426;28;20957;-79
2022/05/29 09:58:36;;;;;;;3.00;1.13;;;14.60;99.90;;;;;;5020029;28;20879;-78
2022/05/29 10:01:05;;;;;;;4.63;1.47;;;15.50;99.90;;;;;;5019534;28;20441;-79
2022/05/29 10:03:50;;;;;;;3.80;1.50;;;15.70;99.90;;;;;;5019361;28;20460;-80
2022/05/29 10:06:23;;;;;;;2.83;1.00;;;15.70;99.90;;;;;;5019340;28;20462;-78
2022/05/29 10:08:53;;;;;;;5.53;1.57;;;16.10;99.90;;;;;;5020345;28;20661;-79
2022/05/29 10:11:23;;;;;;;3.00;1.40;;;16.80;99.90;;;;;;5019142;28;20480;-79
2022/05/29 10:13:51;;;;;;;3.93;1.50;;;18.10;99.90;;;;;;5019626;28;20496;-79
2022/05/29 10:16:35;;;;;;;3.80;1.60;;;18.70;99.90;;;;;;5020031;28;20493;-79
2022/05/29 10:19:02;;;;;;;4.17;1.37;;;18.50;99.90;;;;;;5018326;28;20538;-79
2022/05/29 10:21:31;;;;;;;3.73;1.53;;;18.60;99.90;;;;;;5018659;28;20475;-79
2022/05/29 10:24:20;;;;;;;3.70;1.57;;;18.50;99.90;;;;;;5019080;28;20924;-80
2022/05/29 10:26:49;;;;;;;4.93;1.90;;;18.10;99.90;;;;;;5020669;28;20471;-79
2022/05/29 10:29:20;;;;;;;7.50;2.00;;;17.80;99.90;;;;;;5020083;28;20779;-79
2022/05/29 10:31:49;;;;;;;3.83;1.53;;;17.60;99.90;;;;;;5019006;28;20482;-80
2022/05/29 10:34:23;;;;;;;4.83;1.70;;;17.50;99.90;;;;;;5019440;28;20507;-79
2022/05/29 10:36:50;;;;;;;4.60;2.00;;;16.70;99.90;;;;;;5019128;28;20466;-79
2022/05/29 10:39:23;;;;;;;5.43;1.87;;;16.30;99.90;;;;;;5018579;28;20524;-77
2022/05/29 10:41:51;;;;;;;5.13;1.60;;;15.70;99.90;;;;;;5017888;28;20858;-80
2022/05/29 10:44:38;;;;;;;5.80;1.53;;;15.70;99.90;;;;;;5036423;22;20500;-81
2022/05/29 10:47:09;;;;;;;3.00;1.40;;;15.00;99.90;;;;;;5014904;28;20464;-80
2022/05/29 10:49:39;;;;;;;5.23;1.67;;;14.90;99.90;;;;;;5015493;28;20455;-83
2022/05/29 10:52:40;;;;;;;4.43;1.53;;;14.70;99.90;;;;;;5015148;28;20496;-82
2022/05/29 10:55:25;;;;;;;3.07;1.37;;;14.50;99.90;;;;;;4997616;28;20493;-81
2022/05/29 10:58:15;;;;;;;3.20;1.30;;;14.30;99.90;;;;;;4995447;28;20811;-80
2022/05/29 11:00:52;;;;;;;4.30;1.60;;;14.20;99.90;;;;;;4975092;28;20485;-80
2022/05/29 11:03:56;;;;;;;3.23;1.47;;;14.30;99.90;;;;;;4995636;28;20470;-82
2022/05/29 11:06:58;;;;;;;5.20;1.60;;;14.40;99.90;;;;;;4995350;28;20450;-82
2022/05/29 11:09:45;;;;;;;3.47;1.90;;;14.70;99.90;;;;;;4996159;28;20452;-81
2022/05/29 11:12:24;;;;;;;4.33;2.20;;;14.80;99.90;;;;;;4996052;28;20476;-81
2022/05/29 11:15:08;;;;;;;3.40;1.57;;;14.80;99.90;;;;;;4996284;28;20490;-81
2022/05/29 11:17:47;;;;;;;3.43;1.30;;;15.00;99.90;;;;;;4995883;28;20541;-82
2022/05/29 11:20:30;;;;;;;4.10;2.07;;;14.90;99.90;;;;;;4996205;28;21028;-82
2022/05/29 11:23:25;;;;;;;4.47;1.93;;;14.80;99.90;;;;;;4996248;28;20528;-81
2022/05/29 11:26:04;;;;;;;5.33;1.90;;;14.60;99.90;;;;;;4996100;28;20470;-81
2022/05/29 11:28:58;;;;;;;8.40;2.13;;;14.60;99.90;;;;;;4994387;28;20466;-82
2022/05/29 11:31:35;;;;;;;2.90;1.47;;;14.40;99.90;;;;;;4986570;28;20546;-82
2022/05/29 11:34:19;;;;;;;5.53;1.60;;;14.10;99.90;;;;;;4994547;28;20486;-81
2022/05/29 11:37:11;;;;;;;5.10;1.97;;;13.90;99.90;;;;;;4994804;28;20456;-81
2022/05/29 11:39:41;;;;;;;5.23;1.70;;;14.00;99.90;;;;;;4944893;28;20458;-82
2022/05/29 11:42:14;;;;;;;3.20;1.77;;;14.30;99.90;;;;;;4994128;28;20455;-81
2022/05/29 11:44:47;;;;;;;6.63;2.50;;;14.70;99.90;;;;;;4994003;28;20496;-82
2022/05/29 11:53:07;;;;;;;2.30;1.00;;;17.40;99.90;;;;;;4994627;28;21058;-82
2022/05/29 11:55:38;;;;;;;2.60;1.10;;;16.90;99.90;;;;;;4994149;28;20493;-81
2022/05/29 11:58:11;;;;;;;4.10;1.13;;;16.70;99.90;;;;;;4994885;28;20479;-82
2022/05/29 12:00:44;;;;;;;3.67;1.10;;;16.70;99.90;;;;;;4993596;28;20470;-83
2022/05/29 12:03:21;;;;;;;3.60;1.03;;;16.50;99.90;;;;;;4999003;28;20556;-83
2022/05/29 12:05:54;;;;;;;3.00;1.30;;;16.20;99.90;;;;;;5004008;28;20449;-84
2022/05/29 12:08:26;;;;;;;4.03;1.37;;;15.80;99.90;;;;;;5005011;28;20490;-84
2022/05/29 12:11:02;;;;;;;4.17;1.20;;;15.80;99.90;;;;;;5000644;28;20422;-82
2022/05/29 12:13:34;;;;;;;3.20;1.20;;;15.80;99.90;;;;;;4999222;28;20471;-82
2022/05/29 12:16:06;;;;;;;4.43;1.27;;;15.90;99.90;;;;;;4999035;28;20518;-82
2022/05/29 12:18:42;;;;;;;5.80;1.20;;;15.80;99.90;;;;;;4999217;28;20452;-83
2022/05/29 12:21:14;;;;;;;3.40;1.30;;;15.70;99.90;;;;;;4997839;28;20989;-83
2022/05/29 12:23:45;;;;;;;4.40;1.23;;;16.00;99.90;;;;;;4998167;28;20529;-84
2022/05/29 12:26:17;;;;;;;4.30;1.60;;;16.60;99.90;;;;;;4998769;28;20841;-85
2022/05/29 12:28:48;;;;;;;3.60;1.57;;;17.00;99.90;;;;;;4998385;28;20547;-83
2022/05/29 12:31:22;;;;;;;4.80;1.73;;;17.40;99.90;;;;;;4997612;28;20493;-83
2022/05/29 12:33:49;;;;;;;3.80;1.07;;;17.70;99.90;;;;;;4996725;28;21005;-83
2022/05/29 12:36:25;;;;;;;2.47;1.17;;;17.90;99.90;;;;;;4995266;28;20461;-81
2022/05/29 12:39:04;;;;;;;3.83;1.63;;;18.30;99.90;;;;;;4992896;28;20450;-83
2022/05/29 12:42:16;;;;;;;6.53;1.57;;;18.90;99.90;;;;;;4989421;28;20464;-83
2022/05/29 12:45:19;;;;;;;4.03;1.77;;;19.10;99.90;;;;;;4979372;28;20573;-82
2022/05/29 12:48:23;;;;;;;5.13;1.93;;;19.30;99.90;;;;;;4997674;28;20443;-82
2022/05/29 12:51:17;;;;;;;3.47;1.43;;;18.40;99.90;;;;;;5012558;28;20491;-90
2022/05/29 12:54:23;;;;;;;5.10;1.80;;;18.20;99.90;;;;;;4999012;28;20834;-82
2022/05/29 12:57:20;;;;;;;4.70;1.90;;;17.90;99.90;;;;;;4998683;28;20510;-82
2022/05/29 13:00:20;;;;;;;4.30;1.73;;;17.10;99.90;;;;;;4969503;28;20456;-82
2022/05/29 13:03:42;;;;;;;7.20;1.53;;;16.90;99.90;;;;;;4991116;28;20454;-84
2022/05/29 13:06:38;;;;;;;4.20;1.70;;;16.80;99.90;;;;;;5000436;28;20967;-82
2022/05/29 13:09:28;;;;;;;8.10;1.53;;;16.50;99.90;;;;;;4994739;28;20561;-82
2022/05/29 13:11:58;;;;;;;3.80;1.70;;;16.80;99.90;;;;;;4989423;28;20433;-82
2022/05/29 13:14:26;;;;;;;6.93;1.60;;;16.80;99.90;;;;;;4995139;28;20487;-83
2022/05/29 13:17:08;;;;;;;4.30;1.33;;;16.60;99.90;;;;;;4999585;28;20461;-81
2022/05/29 13:20:01;;;;;;;5.70;2.37;;;16.50;99.90;;;;;;4998182;28;20451;-83
2022/05/29 13:22:52;;;;;;;3.03;1.70;;;15.80;99.90;;;;;;4997591;28;20462;-80
2022/05/29 13:25:22;;;;;;;4.63;2.10;;;15.50;99.90;;;;;;4994378;28;20902;-82
2022/05/29 13:27:49;;;;;;;6.33;2.03;;;15.00;99.90;;;;;;4998747;28;21007;-83
2022/05/29 13:30:42;;;;;;;4.90;2.30;;;14.90;99.90;;;;;;4998512;28;20538;-83
2022/05/29 13:33:53;;;;;;;5.60;1.80;;;14.80;99.90;;;;;;4998442;28;20475;-84
2022/05/29 13:37:06;;;;;;;5.20;2.17;;;15.00;99.90;;;;;;4991518;28;20480;-83
2022/05/29 13:40:04;;;;;;;6.07;2.20;;;15.40;99.90;;;;;;4979896;28;20998;-84
2022/05/29 13:42:48;;;;;;;5.80;2.40;;;15.60;99.90;;;;;;4979021;28;20450;-83
2022/05/29 13:46:05;;;;;;;3.90;1.90;;;15.50;99.90;;;;;;4984315;28;20439;-85
2022/05/29 13:48:32;;;;;;;3.87;1.90;;;15.60;99.90;;;;;;4996020;28;20453;-82